createdAt,value
2023-03-16T00:00:18.980Z,95193.91
2023-03-16T00:02:46.111Z,95193.38
2023-03-16T00:05:14.467Z,95194.19
2023-03-16T00:07:44.626Z,95195.69
2023-03-16T00:10:13.502Z,95199.78
2023-03-16T00:12:43.469Z,95193.91
2023-03-16T00:15:14.133Z,95196.88
2023-03-16T00:17:41.339Z,95196.59
2023-03-16T00:20:09.388Z,95197.00
2023-03-16T00:22:36.353Z,95194.13
2023-03-16T00:25:04.548Z,95207.34
2023-03-16T00:27:31.494Z,95205.03
2023-03-16T00:29:58.733Z,95208.16
2023-03-16T00:32:35.455Z,95202.16
2023-03-16T00:35:05.088Z,95206.53
2023-03-16T00:37:36.901Z,95210.88
2023-03-16T00:40:04.503Z,95206.66
2023-03-16T00:42:34.143Z,95216.50
2023-03-16T00:45:01.629Z,95211.06
2023-03-16T00:47:31.656Z,95215.88
2023-03-16T00:50:00.041Z,95224.59
2023-03-16T00:52:29.015Z,95214.22
2023-03-16T00:54:58.806Z,95223.22
2023-03-16T00:57:28.633Z,95223.50
2023-03-16T00:59:56.220Z,95223.38
2023-03-16T01:02:24.553Z,95226.13
2023-03-16T01:04:54.376Z,95228.97
2023-03-16T01:07:21.930Z,95223.00
2023-03-16T01:09:48.944Z,95233.22
2023-03-16T01:12:19.216Z,95228.03
2023-03-16T01:14:47.057Z,95228.03
2023-03-16T01:17:17.340Z,95231.72
2023-03-16T01:19:45.556Z,95230.38
2023-03-16T01:22:12.836Z,95231.75
2023-03-16T01:24:41.672Z,95230.25
2023-03-16T01:27:09.385Z,95238.44
2023-03-16T01:29:38.301Z,95229.72
2023-03-16T01:32:06.964Z,95229.72
2023-03-16T01:34:35.114Z,95238.84
2023-03-16T01:37:03.157Z,95239.94
2023-03-16T01:39:44.738Z,95235.47
2023-03-16T01:42:13.776Z,95233.28
2023-03-16T01:45:02.326Z,95238.22
2023-03-16T01:47:39.124Z,95234.38
2023-03-16T01:50:11.998Z,95238.22
2023-03-16T01:52:42.233Z,95233.69
2023-03-16T01:55:14.012Z,95235.34
2023-03-16T01:57:45.988Z,95228.25
2023-03-16T02:00:23.645Z,95230.53
2023-03-16T02:03:16.998Z,95233.53
2023-03-16T02:06:06.722Z,95230.81
2023-03-16T02:08:37.989Z,95226.03
2023-03-16T02:11:07.527Z,95222.34
2023-03-16T02:13:46.629Z,95223.03
2023-03-16T02:16:19.657Z,95225.44
2023-03-16T02:18:50.870Z,95229.22
2023-03-16T02:21:29.636Z,95229.75
2023-03-16T02:23:57.094Z,95226.06
2023-03-16T02:26:29.871Z,95235.06
2023-03-16T02:29:48.510Z,95239.25
2023-03-16T02:32:17.592Z,95233.34
2023-03-16T02:34:44.901Z,95236.88
2023-03-16T02:37:13.428Z,95237.38
2023-03-16T02:39:44.020Z,95240.09
2023-03-16T02:42:18.902Z,95247.56
2023-03-16T02:44:53.412Z,95242.66
2023-03-16T02:47:38.296Z,95246.69
2023-03-16T02:50:07.073Z,95240.94
2023-03-16T02:52:37.530Z,95240.38
2023-03-16T02:55:08.088Z,95239.00
2023-03-16T02:57:35.268Z,95250.53
2023-03-16T03:00:13.192Z,95251.25
2023-03-16T03:02:41.090Z,95255.97
2023-03-16T03:05:08.606Z,95255.84
2023-03-16T03:07:37.281Z,95256.09
2023-03-16T03:10:07.637Z,95262.47
2023-03-16T03:12:35.320Z,95264.34
2023-03-16T03:15:07.041Z,95260.38
2023-03-16T03:17:43.003Z,95264.84
2023-03-16T03:20:16.592Z,95261.00
2023-03-16T03:22:46.429Z,95268.88
2023-03-16T03:25:16.716Z,95276.75
2023-03-16T03:27:44.199Z,95267.25
2023-03-16T03:30:21.084Z,95270.06
2023-03-16T03:32:49.126Z,95275.09
2023-03-16T03:35:19.485Z,95274.03
2023-03-16T03:37:46.740Z,95267.81
2023-03-16T03:40:17.415Z,95281.88
2023-03-16T03:42:47.929Z,95281.75
2023-03-16T03:45:15.889Z,95278.91
2023-03-16T03:47:44.383Z,95282.91
2023-03-16T03:50:16.232Z,95282.06
2023-03-16T03:52:56.743Z,95276.88
2023-03-16T03:55:23.810Z,95287.94
2023-03-16T03:57:50.998Z,95281.13
2023-03-16T04:00:20.901Z,95282.63
2023-03-16T04:02:49.600Z,95287.78
2023-03-16T04:05:28.681Z,95288.63
2023-03-16T04:07:57.701Z,95297.91
2023-03-16T04:10:27.645Z,95295.56
2023-03-16T04:12:56.688Z,95306.31
2023-03-16T04:15:24.437Z,95297.63
2023-03-16T04:18:03.790Z,95299.66
2023-03-16T04:20:30.895Z,95299.91
2023-03-16T04:23:00.934Z,95300.97
2023-03-16T04:25:30.603Z,95307.31
2023-03-16T04:27:58.779Z,95305.00
2023-03-16T04:30:30.966Z,95311.94
2023-03-16T04:33:08.304Z,95309.84
2023-03-16T04:35:35.469Z,95310.22
2023-03-16T04:38:02.556Z,95319.88
2023-03-16T04:40:38.958Z,95319.06
2023-03-16T04:43:13.552Z,95323.94
2023-03-16T04:45:42.095Z,95321.56
2023-03-16T04:48:10.360Z,95312.81
2023-03-16T04:50:38.614Z,95325.72
2023-03-16T04:53:05.794Z,95318.19
2023-03-16T04:55:33.507Z,95313.28
2023-03-16T04:58:01.538Z,95318.81
2023-03-16T05:00:33.502Z,95326.56
2023-03-16T05:03:06.528Z,95321.63
2023-03-16T05:05:34.938Z,95325.19
2023-03-16T05:08:02.145Z,95335.72
2023-03-16T05:10:32.286Z,95335.84
2023-03-16T05:13:00.518Z,95340.19
2023-03-16T05:15:28.582Z,95347.94
2023-03-16T05:18:12.213Z,95345.72
2023-03-16T05:20:39.655Z,95339.84
2023-03-16T05:23:08.294Z,95352.63
2023-03-16T05:25:42.544Z,95354.06
2023-03-16T05:28:11.168Z,95354.28
2023-03-16T05:30:45.404Z,95360.03
2023-03-16T05:33:17.054Z,95373.63
2023-03-16T05:35:48.763Z,95376.31
2023-03-16T05:38:15.971Z,95372.69
2023-03-16T05:40:44.357Z,95369.75
2023-03-16T05:43:20.963Z,95369.84
2023-03-16T05:45:50.847Z,95375.72
2023-03-16T05:48:21.220Z,95386.38
2023-03-16T05:50:53.828Z,95368.88
2023-03-16T05:53:28.795Z,95375.47
2023-03-16T05:56:01.191Z,95379.28
2023-03-16T05:58:28.813Z,95380.59
2023-03-16T06:01:01.178Z,95372.69
2023-03-16T06:03:31.386Z,95378.09
2023-03-16T06:05:59.673Z,95382.09
2023-03-16T06:08:31.376Z,95380.09
2023-03-16T06:11:07.803Z,95383.91
2023-03-16T06:13:35.264Z,95388.84
2023-03-16T06:16:02.855Z,95393.25
2023-03-16T06:18:30.060Z,95393.47
2023-03-16T06:20:57.082Z,95394.03
2023-03-16T06:23:25.080Z,95386.72
2023-03-16T06:25:55.204Z,95391.41
2023-03-16T06:28:25.574Z,95381.63
2023-03-16T06:30:57.863Z,95388.66
2023-03-16T06:33:29.535Z,95388.13
2023-03-16T06:35:56.993Z,95392.00
2023-03-16T06:38:33.540Z,95397.75
2023-03-16T06:41:07.768Z,95404.28
2023-03-16T06:43:36.096Z,95404.59
2023-03-16T06:46:03.993Z,95402.72
2023-03-16T06:48:31.253Z,95400.16
2023-03-16T06:50:58.652Z,95406.34
2023-03-16T06:53:28.084Z,95407.75
2023-03-16T06:55:56.528Z,95406.97
2023-03-16T06:58:24.624Z,95406.00
2023-03-16T07:00:53.845Z,95417.50
2023-03-16T07:03:21.538Z,95419.84
2023-03-16T07:05:54.231Z,95414.66
2023-03-16T07:08:21.741Z,95409.09
2023-03-16T07:10:50.588Z,95405.72
2023-03-16T07:13:18.453Z,95409.16
2023-03-16T07:15:45.408Z,95407.00
2023-03-16T07:18:12.610Z,95415.59
2023-03-16T07:20:39.823Z,95413.75
2023-03-16T07:23:07.185Z,95418.00
2023-03-16T07:25:35.754Z,95416.66
2023-03-16T07:28:05.483Z,95412.28
2023-03-16T07:30:39.038Z,95411.59
2023-03-16T07:33:08.221Z,95415.31
2023-03-16T07:35:36.096Z,95411.63
2023-03-16T07:38:03.974Z,95416.16
2023-03-16T07:40:31.479Z,95428.16
2023-03-16T07:43:06.662Z,95429.38
2023-03-16T07:45:36.146Z,95425.03
2023-03-16T07:48:04.516Z,95442.34
2023-03-16T07:50:39.418Z,95441.25
2023-03-16T07:53:06.461Z,95434.44
2023-03-16T07:55:38.855Z,95433.75
2023-03-16T07:58:07.342Z,95429.50
2023-03-16T08:00:38.039Z,95439.47
2023-03-16T08:03:05.659Z,95446.41
2023-03-16T08:05:33.152Z,95436.16
2023-03-16T08:08:02.931Z,95432.88
2023-03-16T08:10:33.685Z,95442.00
2023-03-16T08:13:07.529Z,95434.72
2023-03-16T08:15:36.112Z,95443.03
2023-03-16T08:18:12.510Z,95430.53
2023-03-16T08:20:39.728Z,95426.63
2023-03-16T08:23:08.459Z,95425.19
2023-03-16T08:25:39.064Z,95431.81
2023-03-16T08:28:13.121Z,95422.19
2023-03-16T08:30:52.182Z,95427.16
2023-03-16T08:33:38.648Z,95428.38
2023-03-16T08:36:08.826Z,95420.09
2023-03-16T08:38:36.182Z,95432.66
2023-03-16T08:41:08.042Z,95428.94
2023-03-16T08:43:37.424Z,95430.16
2023-03-16T08:46:05.492Z,95436.91
2023-03-16T08:48:43.437Z,95435.03
2023-03-16T08:51:11.607Z,95436.78
2023-03-16T08:53:39.127Z,95439.66
2023-03-16T08:56:09.152Z,95428.50
2023-03-16T08:58:36.782Z,95426.41
2023-03-16T09:01:05.760Z,95433.16
2023-03-16T09:03:34.807Z,95428.97
2023-03-16T09:06:09.874Z,95434.06
2023-03-16T09:08:39.142Z,95431.69
2023-03-16T09:11:10.452Z,95435.66
2023-03-16T09:13:39.286Z,95442.22
2023-03-16T09:16:08.026Z,95433.97
2023-03-16T09:18:36.261Z,95432.25
2023-03-16T09:21:07.012Z,95424.94
2023-03-16T09:23:37.508Z,95429.88
2023-03-16T09:26:07.483Z,95434.97
2023-03-16T09:28:38.623Z,95432.25
2023-03-16T09:31:07.176Z,95439.25
2023-03-16T09:33:35.351Z,95427.19
2023-03-16T09:36:03.881Z,95432.41
2023-03-16T09:38:32.105Z,95428.78
2023-03-16T09:41:10.646Z,95435.56
2023-03-16T09:43:51.532Z,95435.47
2023-03-16T09:46:27.261Z,95436.50
2023-03-16T09:48:56.810Z,95433.47
2023-03-16T09:51:37.519Z,95434.78
2023-03-16T09:54:17.366Z,95429.91
2023-03-16T09:56:46.781Z,95437.28
2023-03-16T09:59:17.416Z,95437.63
2023-03-16T10:02:25.439Z,95430.41
2023-03-16T10:05:06.317Z,95429.09
2023-03-16T10:07:45.394Z,95433.88
2023-03-16T10:10:15.349Z,95428.53
2023-03-16T10:12:51.459Z,95430.09
2023-03-16T10:15:27.058Z,95433.03
2023-03-16T10:18:18.418Z,95432.69
2023-03-16T10:20:47.889Z,95432.34
2023-03-16T10:23:24.286Z,95426.50
2023-03-16T10:25:56.443Z,95426.50
2023-03-16T10:28:28.805Z,95417.03
2023-03-16T10:31:00.372Z,95418.75
2023-03-16T10:33:34.296Z,95427.91
2023-03-16T10:36:30.266Z,95427.91
2023-03-16T10:39:04.013Z,95426.38
2023-03-16T10:41:40.575Z,95428.28
2023-03-16T10:44:13.565Z,95425.38
2023-03-16T10:47:03.380Z,95418.22
2023-03-16T10:49:49.024Z,95417.22
2023-03-16T10:52:45.445Z,95424.28
2023-03-16T10:55:21.541Z,95417.50
2023-03-16T10:57:53.690Z,95412.53
2023-03-16T11:00:26.574Z,95410.81
2023-03-16T11:02:55.799Z,95411.44
2023-03-16T11:05:32.578Z,95411.28
2023-03-16T11:08:02.264Z,95405.47
2023-03-16T11:10:46.062Z,95416.59
2023-03-16T11:13:21.333Z,95405.47
2023-03-16T11:15:53.941Z,95408.53
2023-03-16T11:19:18.881Z,95411.69
2023-03-16T11:21:59.797Z,95409.00
2023-03-16T11:24:43.265Z,95401.47
2023-03-16T11:28:12.969Z,95408.53
2023-03-16T11:31:08.955Z,95395.63
2023-03-16T11:33:35.981Z,95393.59
2023-03-16T11:36:16.094Z,95385.56
2023-03-16T11:39:14.947Z,95395.88
2023-03-16T11:42:04.133Z,95387.22
2023-03-16T11:44:57.395Z,95385.47
2023-03-16T11:48:13.750Z,95388.38
2023-03-16T11:51:07.657Z,95382.06
2023-03-16T11:53:55.365Z,95382.75
2023-03-16T11:56:43.026Z,95382.00
2023-03-16T11:59:28.378Z,95377.31
2023-03-16T12:02:36.195Z,95364.56
2023-03-16T12:05:55.708Z,95368.38
2023-03-16T12:08:36.016Z,95372.44
2023-03-16T12:11:13.041Z,95360.78
2023-03-16T12:14:03.870Z,95361.59
2023-03-16T12:16:49.515Z,95359.50
2023-03-16T12:19:45.463Z,95362.34
2023-03-16T12:22:21.491Z,95355.97
2023-03-16T12:24:49.195Z,95340.75
2023-03-16T12:27:29.303Z,95336.22
2023-03-16T12:30:27.584Z,95333.00
2023-03-16T12:33:13.706Z,95315.91
2023-03-16T12:35:57.138Z,95318.69
2023-03-16T12:38:45.633Z,95315.03
2023-03-16T12:41:59.174Z,95322.66
2023-03-16T12:45:04.854Z,95305.91
2023-03-16T12:48:17.913Z,95299.75
2023-03-16T12:51:05.031Z,95292.19
2023-03-16T12:53:51.815Z,95282.56
2023-03-16T12:56:30.077Z,95280.19
2023-03-16T12:59:00.898Z,95267.31
2023-03-16T13:01:44.836Z,95264.59
2023-03-16T13:04:17.011Z,95266.56
2023-03-16T13:06:51.533Z,95270.38
2023-03-16T13:09:27.371Z,95272.03
2023-03-16T13:11:55.481Z,95270.47
2023-03-16T13:14:44.094Z,95265.44
2023-03-16T13:17:17.315Z,95264.56
2023-03-16T13:20:30.809Z,95259.03
2023-03-16T13:23:18.041Z,95263.06
2023-03-16T13:26:01.882Z,95261.94
2023-03-16T13:28:36.712Z,95258.91
2023-03-16T13:31:06.162Z,95258.91
2023-03-16T13:33:38.529Z,95256.59
2023-03-16T13:36:06.497Z,95249.44
2023-03-16T13:38:33.576Z,95259.47
2023-03-16T13:41:11.873Z,95254.44
2023-03-16T13:43:43.821Z,95252.66
2023-03-16T13:46:20.201Z,95243.16
2023-03-16T13:48:51.292Z,95248.28
2023-03-16T13:51:22.602Z,95247.91
2023-03-16T13:53:50.898Z,95241.09
2023-03-16T13:56:26.791Z,95250.81
2023-03-16T13:58:54.213Z,95243.13
2023-03-16T14:01:31.288Z,95242.44
2023-03-16T14:04:13.332Z,95234.69
2023-03-16T14:06:43.441Z,95235.09
2023-03-16T14:09:20.339Z,95234.16
2023-03-16T14:11:48.687Z,95235.81
2023-03-16T14:14:24.505Z,95221.53
2023-03-16T14:16:53.464Z,95225.47
2023-03-16T14:19:34.523Z,95226.34
2023-03-16T14:22:04.157Z,95229.53
2023-03-16T14:24:34.856Z,95225.50
2023-03-16T14:27:16.914Z,95231.19
2023-03-16T14:29:45.295Z,95227.63
2023-03-16T14:32:29.090Z,95222.31
2023-03-16T14:35:18.274Z,95225.78
2023-03-16T14:37:45.429Z,95228.06
2023-03-16T14:40:25.255Z,95223.63
2023-03-16T14:42:55.842Z,95218.84
2023-03-16T14:45:32.350Z,95228.63
2023-03-16T14:48:18.653Z,95222.28
2023-03-16T14:50:45.880Z,95223.97
2023-03-16T14:53:13.011Z,95225.63
2023-03-16T14:55:40.447Z,95231.84
2023-03-16T14:58:07.441Z,95228.59
2023-03-16T15:00:42.807Z,95224.88
2023-03-16T15:03:17.654Z,95220.38
2023-03-16T15:05:50.221Z,95224.38
2023-03-16T15:08:31.927Z,95227.66
2023-03-16T15:11:05.695Z,95223.94
2023-03-16T15:13:53.257Z,95234.19
2023-03-16T15:16:23.018Z,95229.00
2023-03-16T15:18:51.763Z,95234.44
2023-03-16T15:21:25.323Z,95237.44
2023-03-16T15:23:52.556Z,95227.88
2023-03-16T15:26:25.186Z,95231.72
2023-03-16T15:28:52.559Z,95224.19
2023-03-16T15:31:19.536Z,95219.03
2023-03-16T15:33:46.844Z,95218.94
2023-03-16T15:36:20.396Z,95221.44
2023-03-16T15:38:51.382Z,95221.75
2023-03-16T15:41:18.705Z,95220.72
2023-03-16T15:43:46.175Z,95222.88
2023-03-16T15:46:13.537Z,95221.28
2023-03-16T15:48:40.679Z,95223.72
2023-03-16T15:51:19.987Z,95217.25
2023-03-16T15:54:03.245Z,95207.09
2023-03-16T15:56:41.218Z,95204.13
2023-03-16T15:59:17.198Z,95208.22
2023-03-16T16:01:47.788Z,95220.97
2023-03-16T16:04:19.694Z,95205.38
2023-03-16T16:06:48.193Z,95210.97
2023-03-16T16:09:15.769Z,95216.06
2023-03-16T16:11:42.954Z,95211.03
2023-03-16T16:14:17.245Z,95213.53
2023-03-16T16:16:48.448Z,95218.13
2023-03-16T16:19:16.466Z,95219.44
2023-03-16T16:21:43.972Z,95225.38
2023-03-16T16:24:11.475Z,95234.25
2023-03-16T16:26:52.027Z,95239.50
2023-03-16T16:29:25.219Z,95237.56
2023-03-16T16:31:52.562Z,95245.47
2023-03-16T16:34:24.674Z,95246.97
2023-03-16T16:36:56.158Z,95246.63
2023-03-16T16:39:23.676Z,95243.59
2023-03-16T16:41:54.552Z,95263.25
2023-03-16T16:44:27.261Z,95263.38
2023-03-16T16:46:55.390Z,95267.13
2023-03-16T16:49:30.413Z,95264.97
2023-03-16T16:51:58.436Z,95274.16
2023-03-16T16:54:31.067Z,95269.47
2023-03-16T16:57:00.682Z,95271.88
2023-03-16T16:59:33.964Z,95267.19
2023-03-16T17:02:03.157Z,95275.25
2023-03-16T17:04:30.659Z,95281.50
2023-03-16T17:07:01.927Z,95282.78
2023-03-16T17:09:30.665Z,95282.19
2023-03-16T17:12:02.067Z,95277.63
2023-03-16T17:14:31.046Z,95276.19
2023-03-16T17:17:05.044Z,95284.19
2023-03-16T17:19:32.788Z,95275.06
2023-03-16T17:21:59.937Z,95279.63
2023-03-16T17:24:27.445Z,95282.81
2023-03-16T17:26:58.844Z,95280.50
2023-03-16T17:29:32.862Z,95291.19
2023-03-16T17:32:16.904Z,95289.50
2023-03-16T17:34:44.117Z,95294.16
2023-03-16T17:37:17.151Z,95281.97
2023-03-16T17:39:44.228Z,95285.78
2023-03-16T17:42:16.107Z,95291.06
2023-03-16T17:44:46.305Z,95289.97
2023-03-16T17:47:24.042Z,95286.09
2023-03-16T17:49:52.131Z,95291.50
2023-03-16T17:52:25.766Z,95281.38
2023-03-16T17:54:54.212Z,95289.75
2023-03-16T17:57:25.496Z,95294.97
2023-03-16T17:59:52.588Z,95285.84
2023-03-16T18:02:44.774Z,95290.09
2023-03-16T18:05:38.257Z,95294.03
2023-03-16T18:08:25.955Z,95299.53
2023-03-16T18:11:01.282Z,95297.09
2023-03-16T18:13:33.298Z,95301.31
2023-03-16T18:16:02.944Z,95299.22
2023-03-16T18:18:34.983Z,95300.16
2023-03-16T18:21:02.716Z,95295.09
2023-03-16T18:23:33.776Z,95300.16
2023-03-16T18:26:03.838Z,95306.31
2023-03-16T18:28:31.594Z,95309.53
2023-03-16T18:31:00.375Z,95292.56
2023-03-16T18:33:37.889Z,95307.84
2023-03-16T18:36:13.435Z,95301.94
2023-03-16T18:38:48.436Z,95302.88
2023-03-16T18:41:25.455Z,95306.78
2023-03-16T18:43:55.895Z,95300.03
2023-03-16T18:46:25.695Z,95308.31
2023-03-16T18:48:55.869Z,95313.34
2023-03-16T18:51:23.700Z,95314.25
2023-03-16T18:53:50.717Z,95309.50
2023-03-16T18:56:21.813Z,95304.06
2023-03-16T18:58:51.419Z,95309.06
2023-03-16T19:01:31.228Z,95302.69
2023-03-16T19:04:01.114Z,95304.56
2023-03-16T19:06:33.363Z,95311.03
2023-03-16T19:09:10.528Z,95307.25
2023-03-16T19:11:43.349Z,95320.69
2023-03-16T19:14:24.411Z,95313.38
2023-03-16T19:16:53.300Z,95325.84
2023-03-16T19:19:22.607Z,95325.34
2023-03-16T19:21:53.786Z,95318.66
2023-03-16T19:24:33.649Z,95317.31
2023-03-16T19:27:02.675Z,95317.47
2023-03-16T19:29:33.552Z,95313.66
2023-03-16T19:32:01.427Z,95314.66
2023-03-16T19:34:28.635Z,95308.94
2023-03-16T19:36:55.799Z,95316.84
2023-03-16T19:39:23.737Z,95312.63
2023-03-16T19:41:57.543Z,95328.09
2023-03-16T19:44:28.471Z,95323.19
2023-03-16T19:46:56.175Z,95319.63
2023-03-16T19:49:26.955Z,95325.78
2023-03-16T19:51:55.887Z,95328.53
2023-03-16T19:54:26.402Z,95331.28
2023-03-16T19:56:55.973Z,95331.41
2023-03-16T19:59:26.783Z,95325.69
2023-03-16T20:01:53.778Z,95327.47
2023-03-16T20:04:24.215Z,95320.81
2023-03-16T20:06:51.896Z,95330.25
2023-03-16T20:09:19.200Z,95326.97
2023-03-16T20:11:48.168Z,95331.34
2023-03-16T20:14:21.446Z,95321.25
2023-03-16T20:16:48.681Z,95326.59
2023-03-16T20:19:16.084Z,95322.50
2023-03-16T20:21:43.336Z,95328.50
2023-03-16T20:24:20.888Z,95325.22
2023-03-16T20:26:51.534Z,95309.25
2023-03-16T20:29:31.970Z,95303.38
2023-03-16T20:32:01.148Z,95301.09
2023-03-16T20:34:31.226Z,95291.81
2023-03-16T20:36:58.708Z,95280.75
2023-03-16T20:39:26.353Z,95273.91
2023-03-16T20:41:53.416Z,95276.50
2023-03-16T20:44:25.175Z,95279.41
2023-03-16T20:46:52.276Z,95277.47
2023-03-16T20:49:22.041Z,95280.75
2023-03-16T20:51:50.040Z,95262.19
2023-03-16T20:54:17.678Z,95268.06
2023-03-16T20:56:44.826Z,95264.63
2023-03-16T20:59:20.321Z,95282.53
2023-03-16T21:01:48.277Z,95282.53
2023-03-16T21:04:23.231Z,95284.16
2023-03-16T21:06:51.020Z,95283.84
2023-03-16T21:09:20.102Z,95294.63
2023-03-16T21:11:47.926Z,95280.66
2023-03-16T21:14:18.534Z,95286.97
2023-03-16T21:16:45.796Z,95283.13
2023-03-16T21:19:21.745Z,95289.94
2023-03-16T21:21:50.712Z,95296.13
2023-03-16T21:24:17.639Z,95282.16
2023-03-16T21:26:47.403Z,95286.25
2023-03-16T21:29:24.165Z,95297.31
2023-03-16T21:31:51.750Z,95298.00
2023-03-16T21:34:33.875Z,95293.59
2023-03-16T21:37:01.000Z,95291.69
2023-03-16T21:39:28.388Z,95282.75
2023-03-16T21:41:55.461Z,95269.09
2023-03-16T21:44:22.739Z,95274.00
2023-03-16T21:46:49.921Z,95273.56
2023-03-16T21:49:17.075Z,95276.00
2023-03-16T21:51:44.160Z,95278.59
2023-03-16T21:54:15.712Z,95262.31
2023-03-16T21:56:43.314Z,95272.59
2023-03-16T21:59:11.239Z,95265.88
2023-03-16T22:01:54.343Z,95257.44
2023-03-16T22:04:26.732Z,95263.44
2023-03-16T22:06:53.776Z,95260.16
2023-03-16T22:09:29.827Z,95253.19
2023-03-16T22:11:56.826Z,95277.56
2023-03-16T22:14:23.868Z,95275.25
2023-03-16T22:16:51.693Z,95268.44
2023-03-16T22:19:18.839Z,95272.00
2023-03-16T22:21:47.476Z,95258.31
2023-03-16T22:24:23.566Z,95253.28
2023-03-16T22:26:51.206Z,95261.88
2023-03-16T22:29:30.634Z,95246.72
2023-03-16T22:32:12.436Z,95250.31
2023-03-16T22:34:48.060Z,95244.72
2023-03-16T22:37:23.177Z,95235.31
2023-03-16T22:39:51.191Z,95233.97
2023-03-16T22:42:37.999Z,95237.84
2023-03-16T22:45:23.037Z,95226.22
2023-03-16T22:47:50.477Z,95222.97
2023-03-16T22:50:19.724Z,95223.44
2023-03-16T22:52:50.418Z,95221.09
2023-03-16T22:55:26.513Z,95218.13
2023-03-16T22:58:18.701Z,95227.03
2023-03-16T23:00:45.792Z,95226.53
2023-03-16T23:03:23.095Z,95221.75
2023-03-16T23:05:50.466Z,95225.16
2023-03-16T23:08:23.420Z,95224.78
2023-03-16T23:10:53.619Z,95228.81
2023-03-16T23:13:24.524Z,95227.16
2023-03-16T23:15:53.467Z,95225.16
2023-03-16T23:18:26.045Z,95228.81
2023-03-16T23:20:53.204Z,95229.13
2023-03-16T23:23:20.334Z,95223.94
2023-03-16T23:25:48.410Z,95231.06
2023-03-16T23:28:23.328Z,95214.41
2023-03-16T23:30:50.574Z,95215.38
2023-03-16T23:33:17.694Z,95218.13
2023-03-16T23:35:46.405Z,95220.19
2023-03-16T23:38:13.653Z,95222.94
2023-03-16T23:40:40.844Z,95218.69
2023-03-16T23:43:08.745Z,95209.94
2023-03-16T23:45:42.076Z,95208.63
2023-03-16T23:48:18.036Z,95203.00
2023-03-16T23:50:48.258Z,95212.59
2023-03-16T23:53:18.642Z,95219.03
2023-03-16T23:55:46.649Z,95232.28
2023-03-16T23:58:14.333Z,95243.47
